Gagarin, Russia
Current Conditions -  °F | °C
As of 1:00 AM on Monday 24 Nov 2014 (Local Time) from UUBW Reporting Station
Overcast Overcast  
Wind Chill: 23°   Ceiling: 1400
Heat Index: 28°   Visibility: 6mi
Dew Point: 25°   Wind: 4mph
Humidity: 86%   Direction: 80°E
Pressure: 30.59"   Gusts: NA
Location:  55.55°N, 35°E
Report Text: UUBW 232200Z 08002MPS 9999 OVC014 M02/M04 Q1036 NOSIG
Loading
Personal Weather Stations






























Interactive Weather Map New forecast layout! Learn more

10-Day Weather Forecast

Advertisements
Track Severe Weather on mobile